createdAt,value
2023-03-15T00:01:16.410Z,85.68
2023-03-15T00:03:43.439Z,85.74
2023-03-15T00:06:10.588Z,85.54
2023-03-15T00:08:37.268Z,85.96
2023-03-15T00:11:03.880Z,85.57
2023-03-15T00:13:30.751Z,85.87
2023-03-15T00:15:59.436Z,85.35
2023-03-15T00:18:26.463Z,84.70
2023-03-15T00:20:52.866Z,85.23
2023-03-15T00:23:19.340Z,85.78
2023-03-15T00:25:47.632Z,85.76
2023-03-15T00:28:14.940Z,85.13
2023-03-15T00:30:41.812Z,85.31
2023-03-15T00:33:09.250Z,85.88
2023-03-15T00:35:39.342Z,85.33
2023-03-15T00:38:05.880Z,85.45
2023-03-15T00:40:32.261Z,84.95
2023-03-15T00:42:58.874Z,85.42
2023-03-15T00:45:25.380Z,85.48
2023-03-15T00:47:54.299Z,84.83
2023-03-15T00:50:22.764Z,85.16
2023-03-15T00:52:49.535Z,85.14
2023-03-15T00:55:18.062Z,85.26
2023-03-15T00:57:46.152Z,85.85
2023-03-15T01:00:16.186Z,86.17
2023-03-15T01:02:42.609Z,86.21
2023-03-15T01:05:09.951Z,86.61
2023-03-15T01:07:36.532Z,86.38
2023-03-15T01:10:06.413Z,86.49
2023-03-15T01:12:33.883Z,86.54
2023-03-15T01:15:02.226Z,86.52
2023-03-15T01:17:28.927Z,87.09
2023-03-15T01:19:55.397Z,87.31
2023-03-15T01:22:21.943Z,87.26
2023-03-15T01:24:48.358Z,87.09
2023-03-15T01:27:14.772Z,86.77
2023-03-15T01:29:41.181Z,87.20
2023-03-15T01:32:09.098Z,87.23
2023-03-15T01:34:36.433Z,87.52
2023-03-15T01:37:03.034Z,87.45
2023-03-15T01:39:38.405Z,87.18
2023-03-15T01:42:04.908Z,87.33
2023-03-15T01:44:55.114Z,87.91
2023-03-15T01:47:25.800Z,88.06
2023-03-15T01:49:58.061Z,88.41
2023-03-15T01:52:30.262Z,87.71
2023-03-15T01:55:11.060Z,87.78
2023-03-15T01:57:56.295Z,87.79
2023-03-15T02:00:24.962Z,87.93
2023-03-15T02:03:04.336Z,87.80
2023-03-15T02:05:35.550Z,87.95
2023-03-15T02:08:07.196Z,88.11
2023-03-15T02:10:45.120Z,88.21
2023-03-15T02:13:15.596Z,88.36
2023-03-15T02:15:46.551Z,88.83
2023-03-15T02:18:17.941Z,88.60
2023-03-15T02:20:47.069Z,88.94
2023-03-15T02:23:17.068Z,89.02
2023-03-15T02:25:55.371Z,89.56
2023-03-15T02:28:22.505Z,89.05
2023-03-15T02:30:49.239Z,89.21
2023-03-15T02:33:26.357Z,89.08
2023-03-15T02:40:17.855Z,89.58
2023-03-15T02:42:44.336Z,90.05
2023-03-15T02:45:10.906Z,89.50
2023-03-15T02:47:38.502Z,89.91
2023-03-15T02:50:05.397Z,90.28
2023-03-15T02:52:31.785Z,89.82
2023-03-15T02:54:58.205Z,89.78
2023-03-15T02:57:24.602Z,89.91
2023-03-15T02:59:52.446Z,90.01
2023-03-15T03:02:19.324Z,90.11
2023-03-15T03:04:45.788Z,89.79
2023-03-15T03:07:12.308Z,89.91
2023-03-15T03:09:46.382Z,90.02
2023-03-15T03:12:13.896Z,89.82
2023-03-15T03:14:43.211Z,89.97
2023-03-15T03:17:13.115Z,89.42
2023-03-15T03:19:40.124Z,89.89
2023-03-15T03:22:06.671Z,90.00
2023-03-15T03:24:33.758Z,89.45
2023-03-15T03:27:00.814Z,89.38
2023-03-15T03:29:30.518Z,89.67
2023-03-15T03:32:00.557Z,89.37
2023-03-15T03:34:27.075Z,89.48
2023-03-15T03:36:53.601Z,89.73
2023-03-15T03:39:32.046Z,88.73
2023-03-15T03:42:00.673Z,88.92
2023-03-15T03:44:27.100Z,88.43
2023-03-15T03:46:53.533Z,88.73
2023-03-15T03:49:19.963Z,88.95
2023-03-15T03:51:46.697Z,89.48
2023-03-15T03:54:13.195Z,90.04
2023-03-15T03:56:40.181Z,89.38
2023-03-15T03:59:06.871Z,89.67
2023-03-15T04:01:45.790Z,89.41
2023-03-15T04:04:14.878Z,88.93
2023-03-15T04:06:46.067Z,88.79
2023-03-15T04:09:16.374Z,89.02
2023-03-15T04:11:44.799Z,89.28
2023-03-15T04:14:13.019Z,89.33
2023-03-15T04:16:40.677Z,88.95
2023-03-15T04:19:09.492Z,89.51
2023-03-15T04:21:37.066Z,89.58
2023-03-15T04:24:34.691Z,90.17
2023-03-15T04:27:14.748Z,90.80
2023-03-15T04:30:05.271Z,90.30
2023-03-15T04:32:50.479Z,90.62
2023-03-15T04:35:37.358Z,90.65
2023-03-15T04:38:19.013Z,90.66
2023-03-15T04:41:00.944Z,90.70
2023-03-15T04:43:38.796Z,91.42
2023-03-15T04:46:25.059Z,91.67
2023-03-15T04:49:07.458Z,92.32
2023-03-15T04:51:52.765Z,92.87
2023-03-15T04:54:39.265Z,92.65
2023-03-15T04:57:31.761Z,93.06
2023-03-15T05:00:12.886Z,92.75
2023-03-15T05:03:02.150Z,93.62
2023-03-15T05:05:51.279Z,93.35
2023-03-15T05:08:36.942Z,93.72
2023-03-15T05:11:12.181Z,93.75
2023-03-15T05:14:14.187Z,94.00
2023-03-15T05:16:48.325Z,93.73
2023-03-15T05:19:37.641Z,93.69
2023-03-15T05:22:25.662Z,93.91
2023-03-15T05:25:11.242Z,94.25
2023-03-15T05:27:52.846Z,94.36
2023-03-15T05:30:37.617Z,94.30
2023-03-15T05:33:11.236Z,94.03
2023-03-15T05:36:07.350Z,93.71
2023-03-15T05:38:39.397Z,94.34
2023-03-15T05:41:22.600Z,94.15
2023-03-15T05:44:06.166Z,94.28
2023-03-15T05:46:59.601Z,93.84
2023-03-15T05:49:46.457Z,94.35
2023-03-15T05:52:28.938Z,94.07
2023-03-15T05:55:10.018Z,94.32
2023-03-15T05:57:54.768Z,94.00
2023-03-15T06:00:36.372Z,94.43
2023-03-15T06:03:11.423Z,93.80
2023-03-15T06:05:47.257Z,93.87
2023-03-15T06:08:18.290Z,94.18
2023-03-15T06:10:47.418Z,93.88
2023-03-15T06:13:17.141Z,94.04
2023-03-15T06:15:46.792Z,94.44
2023-03-15T06:18:14.261Z,94.90
2023-03-15T06:20:40.992Z,95.01
2023-03-15T06:23:11.681Z,96.14
2023-03-15T06:25:43.716Z,95.35
2023-03-15T06:28:10.223Z,95.13
2023-03-15T06:30:41.002Z,94.89
2023-03-15T06:33:07.746Z,94.91
2023-03-15T06:35:35.034Z,94.31
2023-03-15T06:38:01.558Z,94.39
2023-03-15T06:40:28.012Z,94.91
2023-03-15T06:42:54.614Z,94.08
2023-03-15T06:45:21.592Z,94.01
2023-03-15T06:47:49.166Z,93.84
2023-03-15T06:50:16.934Z,93.53
2023-03-15T06:52:43.353Z,93.17
2023-03-15T06:55:12.435Z,93.15
2023-03-15T06:57:40.146Z,92.39
2023-03-15T07:00:11.227Z,92.08
2023-03-15T07:02:38.005Z,91.87
2023-03-15T07:05:05.006Z,92.09
2023-03-15T07:07:31.431Z,92.31
2023-03-15T07:09:57.842Z,91.98
2023-03-15T07:12:24.254Z,91.76
2023-03-15T07:14:50.658Z,91.52
2023-03-15T07:17:17.260Z,90.31
2023-03-15T07:19:55.498Z,90.52
2023-03-15T07:22:23.009Z,90.15
2023-03-15T07:24:49.437Z,89.69
2023-03-15T07:27:18.275Z,89.21
2023-03-15T07:29:45.720Z,90.01
2023-03-15T07:32:12.178Z,89.96
2023-03-15T07:34:38.631Z,88.67
2023-03-15T07:37:05.045Z,88.76
2023-03-15T07:39:32.579Z,88.84
2023-03-15T07:41:59.508Z,88.63
2023-03-15T07:44:31.523Z,87.98
2023-03-15T07:46:58.059Z,88.16
2023-03-15T07:49:24.596Z,87.16
2023-03-15T07:51:51.250Z,86.34
2023-03-15T07:54:17.705Z,87.51
2023-03-15T07:56:44.109Z,87.14
2023-03-15T07:59:11.057Z,87.07
2023-03-15T08:01:37.537Z,86.12
2023-03-15T08:04:04.107Z,87.17
2023-03-15T08:06:31.690Z,87.34
2023-03-15T08:08:58.159Z,87.54
2023-03-15T08:11:24.586Z,87.98
2023-03-15T08:13:51.029Z,88.35
2023-03-15T08:16:17.465Z,88.38
2023-03-15T08:18:43.931Z,88.14
2023-03-15T08:21:10.344Z,88.48
2023-03-15T08:23:36.753Z,88.84
2023-03-15T08:26:03.168Z,88.72
2023-03-15T08:28:29.597Z,89.54
2023-03-15T08:30:56.006Z,89.29
2023-03-15T08:33:22.435Z,89.30
2023-03-15T08:35:55.118Z,89.18
2023-03-15T08:38:21.597Z,88.58
2023-03-15T08:40:47.994Z,88.94
2023-03-15T08:43:14.461Z,88.14
2023-03-15T08:45:59.812Z,87.03
2023-03-15T08:48:27.179Z,88.46
2023-03-15T08:50:53.807Z,87.65
2023-03-15T08:53:20.231Z,87.14
2023-03-15T08:55:48.659Z,84.96
2023-03-15T08:58:15.053Z,85.25
2023-03-15T09:00:41.490Z,84.26
2023-03-15T09:03:08.666Z,84.52
2023-03-15T09:05:35.998Z,85.32
2023-03-15T09:08:02.424Z,84.07
2023-03-15T09:10:28.816Z,83.34
2023-03-15T09:12:55.552Z,82.09
2023-03-15T09:15:22.093Z,82.43
2023-03-15T09:17:51.018Z,83.28
2023-03-15T09:20:19.199Z,82.29
2023-03-15T09:22:57.352Z,80.38
2023-03-15T09:25:25.117Z,79.44
2023-03-15T09:27:51.746Z,79.20
2023-03-15T09:30:18.278Z,79.77
2023-03-15T09:32:45.810Z,79.06
2023-03-15T09:35:19.970Z,76.62
2023-03-15T09:37:47.829Z,76.65
2023-03-15T09:40:38.291Z,78.39
2023-03-15T09:43:07.731Z,76.56
2023-03-15T09:46:03.912Z,76.35
2023-03-15T09:48:37.788Z,77.51
2023-03-15T09:51:18.896Z,77.32
2023-03-15T09:53:58.578Z,78.59
2023-03-15T09:56:39.945Z,76.18
2023-03-15T09:59:06.908Z,75.41
2023-03-15T10:01:39.700Z,75.51
2023-03-15T10:04:14.156Z,76.09
2023-03-15T10:06:46.339Z,75.10
2023-03-15T10:09:17.948Z,74.40
2023-03-15T10:11:56.632Z,75.17
2023-03-15T10:14:36.298Z,74.66
2023-03-15T10:17:11.831Z,75.38
2023-03-15T10:20:12.203Z,74.97
2023-03-15T10:22:59.273Z,75.88
2023-03-15T10:25:28.267Z,76.69
2023-03-15T10:28:04.413Z,75.75
2023-03-15T10:30:36.440Z,75.93
2023-03-15T10:33:10.502Z,75.83
2023-03-15T10:35:38.247Z,76.30
2023-03-15T10:38:15.401Z,73.46
2023-03-15T10:40:41.768Z,73.63
2023-03-15T10:43:19.476Z,74.06
2023-03-15T10:46:03.481Z,71.21
2023-03-15T10:48:32.551Z,70.70
2023-03-15T10:51:19.982Z,72.22
2023-03-15T10:53:53.762Z,69.18
2023-03-15T10:56:26.126Z,69.26
2023-03-15T10:59:11.356Z,67.46
2023-03-15T11:01:38.302Z,68.38
2023-03-15T11:04:26.853Z,66.36
2023-03-15T11:07:04.632Z,65.17
2023-03-15T11:09:42.538Z,64.83
2023-03-15T11:12:16.461Z,66.27
2023-03-15T11:14:48.190Z,63.65
2023-03-15T11:17:21.335Z,65.95
2023-03-15T11:19:59.872Z,65.20
2023-03-15T11:22:26.390Z,66.75
2023-03-15T11:24:54.733Z,67.17
2023-03-15T11:27:23.579Z,67.32
2023-03-15T11:29:58.165Z,65.82
2023-03-15T11:32:27.159Z,66.23
2023-03-15T11:35:06.637Z,63.96
2023-03-15T11:37:47.345Z,63.50
2023-03-15T11:40:23.676Z,64.81
2023-03-15T11:43:18.535Z,63.41
2023-03-15T11:45:51.464Z,65.56
2023-03-15T11:48:42.335Z,66.18
2023-03-15T11:51:11.985Z,63.77
2023-03-15T11:53:46.006Z,63.29
2023-03-15T11:56:28.130Z,63.27
2023-03-15T11:59:28.636Z,61.41
2023-03-15T12:02:10.263Z,63.77
2023-03-15T12:04:36.631Z,60.65
2023-03-15T12:07:06.551Z,61.02
2023-03-15T12:09:32.882Z,61.22
2023-03-15T12:12:23.961Z,60.36
2023-03-15T12:15:32.275Z,59.45
2023-03-15T12:18:00.330Z,61.34
2023-03-15T12:20:40.835Z,59.72
2023-03-15T12:23:28.692Z,57.56
2023-03-15T12:26:05.315Z,56.09
2023-03-15T12:29:00.646Z,55.70
2023-03-15T12:31:43.132Z,58.53
2023-03-15T12:34:15.690Z,56.84
2023-03-15T12:36:48.440Z,57.47
2023-03-15T12:39:14.779Z,55.80
2023-03-15T12:41:44.580Z,54.50
2023-03-15T12:44:32.680Z,52.28
2023-03-15T12:47:01.568Z,52.58
2023-03-15T12:49:36.908Z,53.97
2023-03-15T12:52:27.224Z,52.07
2023-03-15T12:55:16.012Z,50.15
2023-03-15T12:57:57.947Z,52.07
2023-03-15T13:00:27.687Z,49.47
2023-03-15T13:03:04.896Z,49.66
2023-03-15T13:05:45.232Z,51.72
2023-03-15T13:08:24.487Z,48.92
2023-03-15T13:10:50.827Z,51.19
2023-03-15T13:13:17.181Z,47.00
2023-03-15T13:16:17.544Z,46.19
2023-03-15T13:19:22.896Z,45.22
2023-03-15T13:22:14.374Z,45.67
2023-03-15T13:24:57.754Z,46.90
2023-03-15T13:27:38.086Z,54.07
2023-03-15T13:30:52.350Z,60.22
2023-03-15T13:33:21.001Z,69.04
2023-03-15T13:35:56.424Z,72.47
2023-03-15T13:38:40.809Z,76.05
2023-03-15T13:41:27.515Z,74.04
2023-03-15T13:43:56.952Z,73.57
2023-03-15T13:46:26.664Z,70.10
2023-03-15T13:48:55.001Z,69.07
2023-03-15T13:51:27.162Z,67.24
2023-03-15T13:53:57.901Z,64.57
2023-03-15T13:56:37.428Z,64.77
2023-03-15T13:59:12.179Z,61.64
2023-03-15T14:01:42.350Z,60.95
2023-03-15T14:04:16.327Z,60.87
2023-03-15T14:06:45.642Z,60.17
2023-03-15T14:09:29.894Z,58.31
2023-03-15T14:12:06.346Z,56.55
2023-03-15T14:14:38.605Z,54.19
2023-03-15T14:17:20.698Z,53.35
2023-03-15T14:19:54.900Z,53.54
2023-03-15T14:22:21.409Z,51.35
2023-03-15T14:24:51.148Z,50.74
2023-03-15T14:27:25.582Z,50.10
2023-03-15T14:29:55.333Z,51.42
2023-03-15T14:32:33.551Z,50.71
2023-03-15T14:35:04.223Z,49.75
2023-03-15T14:37:42.158Z,51.43
2023-03-15T14:40:23.327Z,51.36
2023-03-15T14:42:50.296Z,50.76
2023-03-15T14:45:18.566Z,50.77
2023-03-15T14:47:56.726Z,49.97
2023-03-15T14:50:27.500Z,49.67
2023-03-15T14:52:55.706Z,50.21
2023-03-15T14:55:27.431Z,49.55
2023-03-15T14:57:53.855Z,49.02
2023-03-15T15:00:20.713Z,50.25
2023-03-15T15:02:51.799Z,49.32
2023-03-15T15:05:23.169Z,48.52
2023-03-15T15:07:54.593Z,48.40
2023-03-15T15:10:23.391Z,48.06
2023-03-15T15:12:56.424Z,47.25
2023-03-15T15:15:31.015Z,47.20
2023-03-15T15:17:58.646Z,47.46
2023-03-15T15:20:25.434Z,47.79
2023-03-15T15:22:51.858Z,47.90
2023-03-15T15:25:21.878Z,47.58
2023-03-15T15:27:51.721Z,47.87
2023-03-15T15:30:22.898Z,47.87
2023-03-15T15:32:49.635Z,47.71
2023-03-15T15:35:19.061Z,48.22
2023-03-15T15:37:48.151Z,49.19
2023-03-15T15:40:24.704Z,49.55
2023-03-15T15:42:51.096Z,49.79
2023-03-15T15:45:18.284Z,50.18
2023-03-15T15:47:45.094Z,50.83
2023-03-15T15:50:13.928Z,50.93
2023-03-15T15:52:44.361Z,52.05
2023-03-15T15:55:21.574Z,59.62
2023-03-15T15:57:49.757Z,64.98
2023-03-15T16:00:23.868Z,72.42
2023-03-15T16:02:52.598Z,72.52
2023-03-15T16:05:20.837Z,73.11
2023-03-15T16:07:47.234Z,74.04
2023-03-15T16:10:21.036Z,75.70
2023-03-15T16:12:48.342Z,75.54
2023-03-15T16:15:16.567Z,74.70
2023-03-15T16:17:44.291Z,74.50
2023-03-15T16:20:12.644Z,74.20
2023-03-15T16:22:42.837Z,74.36
2023-03-15T16:25:15.687Z,75.63
2023-03-15T16:27:42.795Z,75.29
2023-03-15T16:30:21.843Z,75.29
2023-03-15T16:32:48.876Z,74.66
2023-03-15T16:35:15.918Z,74.38
2023-03-15T16:37:43.638Z,75.79
2023-03-15T16:40:25.257Z,74.96
2023-03-15T16:42:51.671Z,75.48
2023-03-15T16:45:18.190Z,75.30
2023-03-15T16:47:44.593Z,74.88
2023-03-15T16:50:11.967Z,74.88
2023-03-15T16:52:39.577Z,74.27
2023-03-15T16:55:06.559Z,74.71
2023-03-15T16:57:33.047Z,74.21
2023-03-15T16:59:59.495Z,74.69
2023-03-15T17:02:28.700Z,75.00
2023-03-15T17:04:55.673Z,74.91
2023-03-15T17:07:27.703Z,75.06
2023-03-15T17:09:54.262Z,74.51
2023-03-15T17:12:26.891Z,75.25
2023-03-15T17:14:55.428Z,75.15
2023-03-15T17:17:21.914Z,74.26
2023-03-15T17:19:48.353Z,74.71
2023-03-15T17:22:16.806Z,74.24
2023-03-15T17:24:43.326Z,74.97
2023-03-15T17:27:22.137Z,74.98
2023-03-15T17:29:48.851Z,74.53
2023-03-15T17:32:15.333Z,74.55
2023-03-15T17:34:46.982Z,75.13
2023-03-15T17:37:14.753Z,75.46
2023-03-15T17:39:42.193Z,75.46
2023-03-15T17:42:15.185Z,74.88
2023-03-15T17:44:42.203Z,74.37
2023-03-15T17:47:12.403Z,75.19
2023-03-15T17:49:38.902Z,75.16
2023-03-15T17:52:12.337Z,75.60
2023-03-15T17:54:38.732Z,75.22
2023-03-15T17:57:05.147Z,74.89
2023-03-15T17:59:31.569Z,75.54
2023-03-15T18:01:58.070Z,75.93
2023-03-15T18:04:24.600Z,75.50
2023-03-15T18:06:51.027Z,75.51
2023-03-15T18:09:17.417Z,75.66
2023-03-15T18:11:45.900Z,75.51
2023-03-15T18:14:14.702Z,75.41
2023-03-15T18:16:42.135Z,75.53
2023-03-15T18:19:08.612Z,75.80
2023-03-15T18:21:35.065Z,75.89
2023-03-15T18:24:01.534Z,76.16
2023-03-15T18:26:28.048Z,76.05
2023-03-15T18:28:54.463Z,76.11
2023-03-15T18:31:26.087Z,76.23
2023-03-15T18:33:53.189Z,76.53
2023-03-15T18:36:20.199Z,76.62
2023-03-15T18:38:46.706Z,76.50
2023-03-15T18:41:22.535Z,76.70
2023-03-15T18:43:50.064Z,77.45
2023-03-15T18:46:24.585Z,77.89
2023-03-15T18:48:53.475Z,77.34
2023-03-15T18:51:25.654Z,77.55
2023-03-15T18:53:52.296Z,77.94
2023-03-15T18:56:21.352Z,77.71
2023-03-15T18:58:49.036Z,77.51
2023-03-15T19:01:16.137Z,77.81
2023-03-15T19:03:43.237Z,77.85
2023-03-15T19:06:11.711Z,78.00
2023-03-15T19:08:38.298Z,78.50
2023-03-15T19:11:05.976Z,77.17
2023-03-15T19:13:32.414Z,77.63
2023-03-15T19:15:58.883Z,77.92
2023-03-15T19:18:25.424Z,78.84
2023-03-15T19:20:52.518Z,78.83
2023-03-15T19:23:20.237Z,79.69
2023-03-15T19:25:47.780Z,79.52
2023-03-15T19:28:14.476Z,79.30
2023-03-15T19:30:41.892Z,79.34
2023-03-15T19:33:08.700Z,79.49
2023-03-15T19:35:35.247Z,78.84
2023-03-15T19:38:01.827Z,79.38
2023-03-15T19:40:28.462Z,79.27
2023-03-15T19:42:54.928Z,79.31
2023-03-15T19:45:21.331Z,79.64
2023-03-15T19:47:47.762Z,79.76
2023-03-15T19:50:15.156Z,79.82
2023-03-15T19:52:46.065Z,78.94
2023-03-15T19:55:20.263Z,79.81
2023-03-15T19:57:47.540Z,79.93
2023-03-15T20:00:16.211Z,79.71
2023-03-15T20:02:44.123Z,80.32
2023-03-15T20:05:13.366Z,81.01
2023-03-15T20:07:39.827Z,80.34
2023-03-15T20:10:08.471Z,80.82
2023-03-15T20:12:35.802Z,81.13
2023-03-15T20:15:02.397Z,81.05
2023-03-15T20:17:28.848Z,81.41
2023-03-15T20:19:55.431Z,81.20
2023-03-15T20:22:21.851Z,81.04
2023-03-15T20:24:48.284Z,80.66
2023-03-15T20:27:14.703Z,80.70
2023-03-15T20:29:41.134Z,80.36
2023-03-15T20:32:07.570Z,80.30
2023-03-15T20:34:34.954Z,80.81
2023-03-15T20:37:01.900Z,79.85
2023-03-15T20:39:28.346Z,80.39
2023-03-15T20:41:54.781Z,80.17
2023-03-15T20:44:21.326Z,80.85
2023-03-15T20:46:47.839Z,81.22
2023-03-15T20:49:15.305Z,81.68
2023-03-15T20:51:41.702Z,81.11
2023-03-15T20:54:08.106Z,80.83
2023-03-15T20:56:34.503Z,81.24
2023-03-15T20:59:01.514Z,81.26
2023-03-15T21:01:27.907Z,81.39
2023-03-15T21:03:56.130Z,81.00
2023-03-15T21:06:22.865Z,81.03
2023-03-15T21:08:49.304Z,81.37
2023-03-15T21:11:15.835Z,81.28
2023-03-15T21:13:42.252Z,81.87
2023-03-15T21:16:08.720Z,82.41
2023-03-15T21:18:38.452Z,82.83
2023-03-15T21:21:07.288Z,82.51
2023-03-15T21:23:34.442Z,82.39
2023-03-15T21:26:06.208Z,81.96
2023-03-15T21:28:32.893Z,82.11
2023-03-15T21:30:59.471Z,82.53
2023-03-15T21:33:28.136Z,81.60
2023-03-15T21:35:55.941Z,82.29
2023-03-15T21:38:22.816Z,82.03
2023-03-15T21:40:52.520Z,82.59
2023-03-15T21:43:19.110Z,81.88
2023-03-15T21:45:46.048Z,82.28
2023-03-15T21:48:12.518Z,82.65
2023-03-15T21:50:38.914Z,82.67
2023-03-15T21:53:05.321Z,83.15
2023-03-15T21:55:33.604Z,82.05
2023-03-15T21:58:01.891Z,82.33
2023-03-15T22:00:30.031Z,83.33
2023-03-15T22:02:56.937Z,82.89
2023-03-15T22:05:23.758Z,83.75
2023-03-15T22:07:50.195Z,82.52
2023-03-15T22:10:17.042Z,83.05
2023-03-15T22:12:43.464Z,83.31
2023-03-15T22:15:10.257Z,83.05
2023-03-15T22:17:36.696Z,85.54
2023-03-15T22:20:09.044Z,87.69
2023-03-15T22:22:35.434Z,87.68
2023-03-15T22:25:01.829Z,88.57
2023-03-15T22:27:28.258Z,88.14
2023-03-15T22:29:54.672Z,89.00
2023-03-15T22:32:21.069Z,90.02
2023-03-15T22:34:47.471Z,90.27
2023-03-15T22:37:13.863Z,90.92
2023-03-15T22:39:41.880Z,90.49
2023-03-15T22:42:08.985Z,90.77
2023-03-15T22:44:35.421Z,90.16
2023-03-15T22:47:01.938Z,90.53
2023-03-15T22:49:28.361Z,90.24
2023-03-15T22:51:54.747Z,90.23
2023-03-15T22:54:21.274Z,90.73
2023-03-15T22:56:47.687Z,90.35
2023-03-15T22:59:14.096Z,89.91
2023-03-15T23:01:40.991Z,89.58
2023-03-15T23:04:07.523Z,89.71
2023-03-15T23:06:33.998Z,90.12
2023-03-15T23:09:00.780Z,89.68
2023-03-15T23:11:27.246Z,88.94
2023-03-15T23:13:53.688Z,89.28
2023-03-15T23:16:20.157Z,88.80
2023-03-15T23:18:48.581Z,89.43
2023-03-15T23:21:15.037Z,89.19
2023-03-15T23:23:44.975Z,89.41
2023-03-15T23:26:16.623Z,88.30
2023-03-15T23:28:43.352Z,88.91
2023-03-15T23:31:09.822Z,88.93
2023-03-15T23:33:36.300Z,88.58
2023-03-15T23:36:05.667Z,87.24
2023-03-15T23:38:34.517Z,89.56
2023-03-15T23:41:01.963Z,89.42
2023-03-15T23:43:28.388Z,89.85
2023-03-15T23:45:59.720Z,89.66
2023-03-15T23:48:26.877Z,90.00
2023-03-15T23:50:57.612Z,89.80
2023-03-15T23:53:28.000Z,89.86
2023-03-15T23:55:54.958Z,88.93
2023-03-15T23:58:21.858Z,89.11
